createdAt,value
2022-12-20T00:01:45.877Z,71.40
2022-12-20T00:04:14.037Z,71.39
2022-12-20T00:06:42.095Z,71.50
2022-12-20T00:09:12.163Z,71.44
2022-12-20T00:11:41.375Z,71.38
2022-12-20T00:14:10.586Z,71.47
2022-12-20T00:16:38.567Z,71.53
2022-12-20T00:19:09.572Z,71.73
2022-12-20T00:21:38.360Z,72.00
2022-12-20T00:24:06.978Z,72.13
2022-12-20T00:26:36.015Z,71.77
2022-12-20T00:29:05.549Z,71.82
2022-12-20T00:31:34.604Z,72.30
2022-12-20T00:34:02.936Z,72.71
2022-12-20T00:36:32.737Z,73.10
2022-12-20T00:39:02.364Z,74.46
2022-12-20T00:41:33.073Z,74.95
2022-12-20T00:44:02.728Z,75.94
2022-12-20T00:46:32.285Z,75.66
2022-12-20T00:49:00.779Z,75.08
2022-12-20T00:51:32.865Z,74.57
2022-12-20T00:54:01.322Z,73.64
2022-12-20T00:56:29.593Z,73.98
2022-12-20T00:59:00.411Z,74.48
2022-12-20T01:01:32.523Z,74.41
2022-12-20T01:04:02.013Z,74.34
2022-12-20T01:06:31.418Z,74.43
2022-12-20T01:09:00.811Z,74.23
2022-12-20T01:11:32.408Z,73.64
2022-12-20T01:14:09.825Z,73.11
2022-12-20T01:16:42.321Z,73.08
2022-12-20T01:19:16.960Z,72.91
2022-12-20T01:21:45.757Z,72.75
2022-12-20T01:24:16.877Z,72.77
2022-12-20T01:26:45.460Z,72.56
2022-12-20T01:29:15.822Z,72.36
2022-12-20T01:31:45.338Z,72.32
2022-12-20T01:34:14.178Z,72.50
2022-12-20T01:36:43.145Z,72.65
2022-12-20T01:39:16.773Z,72.65
2022-12-20T01:41:46.409Z,72.67
2022-12-20T01:44:17.388Z,72.88
2022-12-20T01:46:47.958Z,73.04
2022-12-20T01:49:24.032Z,73.21
2022-12-20T01:51:54.243Z,73.12
2022-12-20T01:54:29.608Z,72.84
2022-12-20T01:57:02.804Z,73.14
2022-12-20T01:59:34.048Z,73.22
2022-12-20T02:02:06.073Z,73.03
2022-12-20T02:04:34.325Z,73.21
2022-12-20T02:07:04.787Z,73.28
2022-12-20T02:09:35.363Z,73.00
2022-12-20T02:12:20.803Z,72.79
2022-12-20T02:14:51.227Z,73.26
2022-12-20T02:17:31.889Z,73.17
2022-12-20T02:20:21.166Z,72.98
2022-12-20T02:23:16.769Z,72.92
2022-12-20T02:26:06.083Z,72.92
2022-12-20T02:29:03.884Z,73.08
2022-12-20T02:31:43.052Z,72.98
2022-12-20T02:34:12.923Z,73.03
2022-12-20T02:36:41.632Z,73.34
2022-12-20T02:39:15.895Z,73.27
2022-12-20T02:41:51.702Z,72.69
2022-12-20T02:44:43.400Z,72.59
2022-12-20T02:47:17.756Z,72.73
2022-12-20T02:49:47.647Z,72.89
2022-12-20T02:52:18.806Z,72.75
2022-12-20T02:54:47.895Z,72.72
2022-12-20T02:57:25.272Z,72.74
2022-12-20T03:00:11.290Z,72.61
2022-12-20T03:02:59.674Z,72.52
2022-12-20T03:05:28.604Z,72.66
2022-12-20T03:07:56.890Z,72.61
2022-12-20T03:10:27.350Z,72.61
2022-12-20T03:12:55.682Z,72.52
2022-12-20T03:15:24.141Z,72.74
2022-12-20T03:17:53.662Z,72.58
2022-12-20T03:20:22.241Z,72.77
2022-12-20T03:22:50.319Z,72.66
2022-12-20T03:25:18.395Z,72.62
2022-12-20T03:27:46.917Z,72.44
2022-12-20T03:30:15.733Z,72.20
2022-12-20T03:32:43.805Z,72.24
2022-12-20T03:35:12.695Z,72.54
2022-12-20T03:37:41.921Z,72.42
2022-12-20T03:40:11.767Z,72.22
2022-12-20T03:42:40.289Z,72.08
2022-12-20T03:45:08.776Z,72.02
2022-12-20T03:47:36.963Z,72.13
2022-12-20T03:50:07.514Z,72.28
2022-12-20T03:52:36.266Z,72.13
2022-12-20T03:55:06.178Z,72.27
2022-12-20T03:57:42.346Z,72.31
2022-12-20T04:00:23.526Z,72.30
2022-12-20T04:02:52.619Z,72.07
2022-12-20T04:05:21.945Z,72.10
2022-12-20T04:07:50.343Z,72.22
2022-12-20T04:10:18.481Z,72.29
2022-12-20T04:12:47.028Z,72.48
2022-12-20T04:15:15.614Z,72.37
2022-12-20T04:17:43.990Z,72.20
2022-12-20T04:20:19.962Z,72.09
2022-12-20T04:22:56.424Z,72.33
2022-12-20T04:25:25.114Z,72.48
2022-12-20T04:27:55.746Z,72.32
2022-12-20T04:30:24.222Z,72.25
2022-12-20T04:32:54.723Z,72.15
2022-12-20T04:35:23.242Z,72.15
2022-12-20T04:37:51.515Z,72.53
2022-12-20T04:40:20.105Z,72.84
2022-12-20T04:42:51.908Z,73.33
2022-12-20T04:45:20.131Z,73.48
2022-12-20T04:47:48.479Z,73.42
2022-12-20T04:50:19.304Z,73.32
2022-12-20T04:53:06.390Z,73.52
2022-12-20T04:55:41.161Z,73.54
2022-12-20T04:58:09.300Z,73.48
2022-12-20T05:00:39.439Z,73.56
2022-12-20T05:03:22.957Z,73.96
2022-12-20T05:05:51.883Z,74.04
2022-12-20T05:08:20.257Z,74.07
2022-12-20T05:10:49.061Z,74.01
2022-12-20T05:13:17.829Z,74.03
2022-12-20T05:15:51.782Z,74.07
2022-12-20T05:18:20.341Z,73.81
2022-12-20T05:21:17.811Z,73.68
2022-12-20T05:24:06.235Z,73.77
2022-12-20T05:26:41.357Z,73.93
2022-12-20T05:29:09.339Z,73.91
2022-12-20T05:31:37.807Z,74.12
2022-12-20T05:34:06.518Z,74.11
2022-12-20T05:36:36.432Z,73.86
2022-12-20T05:39:06.335Z,73.76
2022-12-20T05:41:36.127Z,73.62
2022-12-20T05:44:05.254Z,73.81
2022-12-20T05:46:35.078Z,73.91
2022-12-20T05:49:05.498Z,74.04
2022-12-20T05:51:33.663Z,73.93
2022-12-20T05:54:13.729Z,73.78
2022-12-20T05:57:17.821Z,74.00
2022-12-20T05:59:46.113Z,74.02
2022-12-20T06:02:17.435Z,73.72
2022-12-20T06:04:48.089Z,73.77
2022-12-20T06:07:22.214Z,73.74
2022-12-20T06:09:55.737Z,73.95
2022-12-20T06:12:28.284Z,74.04
2022-12-20T06:14:57.891Z,73.99
2022-12-20T06:17:25.880Z,74.03
2022-12-20T06:19:54.858Z,73.91
2022-12-20T06:22:23.210Z,73.55
2022-12-20T06:24:56.208Z,73.61
2022-12-20T06:27:28.465Z,74.00
2022-12-20T06:30:31.848Z,74.16
2022-12-20T06:33:08.088Z,74.34
2022-12-20T06:35:36.231Z,74.34
2022-12-20T06:38:08.622Z,74.32
2022-12-20T06:40:37.181Z,74.42
2022-12-20T06:43:05.281Z,74.10
2022-12-20T06:45:41.033Z,73.69
2022-12-20T06:48:14.906Z,73.26
2022-12-20T06:50:49.252Z,73.62
2022-12-20T06:53:21.810Z,73.83
2022-12-20T06:55:50.509Z,73.62
2022-12-20T06:58:20.065Z,73.39
2022-12-20T07:00:49.899Z,73.45
2022-12-20T07:03:18.202Z,73.43
2022-12-20T07:05:54.982Z,73.15
2022-12-20T07:08:24.587Z,73.02
2022-12-20T07:10:53.102Z,72.51
2022-12-20T07:13:21.551Z,72.17
2022-12-20T07:15:49.610Z,72.09
2022-12-20T07:18:18.966Z,71.92
2022-12-20T07:20:46.895Z,71.64
2022-12-20T07:23:14.969Z,71.18
2022-12-20T07:25:43.267Z,70.97
2022-12-20T07:28:11.743Z,70.57
2022-12-20T07:30:39.726Z,70.61
2022-12-20T07:33:07.867Z,70.57
2022-12-20T07:35:35.931Z,70.37
2022-12-20T07:38:04.978Z,70.06
2022-12-20T07:40:33.033Z,69.96
2022-12-20T07:43:01.087Z,69.52
2022-12-20T07:45:29.927Z,69.19
2022-12-20T07:48:03.260Z,69.16
2022-12-20T07:50:36.183Z,69.14
2022-12-20T07:53:06.516Z,68.94
2022-12-20T07:55:36.545Z,68.89
2022-12-20T07:58:08.016Z,68.17
2022-12-20T08:00:37.863Z,68.04
2022-12-20T08:03:11.791Z,67.62
2022-12-20T08:05:44.338Z,67.53
2022-12-20T08:08:12.926Z,67.05
2022-12-20T08:10:41.710Z,66.85
2022-12-20T08:13:10.227Z,66.70
2022-12-20T08:15:38.562Z,66.00
2022-12-20T08:18:06.953Z,66.06
2022-12-20T08:20:35.014Z,65.29
2022-12-20T08:23:04.740Z,64.54
2022-12-20T08:25:41.266Z,64.52
2022-12-20T08:28:10.080Z,63.83
2022-12-20T08:30:38.371Z,63.31
2022-12-20T08:33:06.957Z,63.20
2022-12-20T08:35:35.631Z,62.45
2022-12-20T08:38:03.703Z,61.52
2022-12-20T08:40:31.714Z,59.93
2022-12-20T08:43:03.730Z,59.32
2022-12-20T08:45:36.505Z,57.17
2022-12-20T08:48:04.784Z,56.87
2022-12-20T08:50:32.888Z,52.72
2022-12-20T08:53:00.940Z,50.48
2022-12-20T08:55:29.741Z,48.52
2022-12-20T08:57:58.216Z,46.16
2022-12-20T09:00:26.387Z,45.64
2022-12-20T09:02:55.725Z,47.47
2022-12-20T09:05:24.989Z,43.99
2022-12-20T09:07:53.731Z,42.90
2022-12-20T09:10:21.854Z,39.64
2022-12-20T09:12:50.131Z,38.61
2022-12-20T09:15:18.099Z,38.56
2022-12-20T09:17:47.313Z,39.28
2022-12-20T09:20:15.884Z,39.51
2022-12-20T09:22:45.281Z,43.25
2022-12-20T09:25:13.323Z,42.08
2022-12-20T09:27:41.369Z,36.53
2022-12-20T09:30:10.426Z,33.00
2022-12-20T09:32:38.496Z,31.50
2022-12-20T09:35:07.192Z,30.85
2022-12-20T09:37:35.226Z,32.59
2022-12-20T09:40:04.540Z,35.45
2022-12-20T09:42:32.531Z,32.71
2022-12-20T09:45:14.206Z,30.87
2022-12-20T09:47:42.352Z,31.73
2022-12-20T09:50:17.954Z,33.94
2022-12-20T09:53:18.133Z,35.15
2022-12-20T09:55:50.315Z,32.98
2022-12-20T09:58:45.070Z,32.74
2022-12-20T10:01:25.012Z,33.27
2022-12-20T10:03:56.868Z,33.42
2022-12-20T10:06:31.005Z,33.78
2022-12-20T10:09:05.445Z,33.33
2022-12-20T10:11:51.368Z,33.70
2022-12-20T10:14:37.937Z,33.06
2022-12-20T10:17:14.455Z,33.70
2022-12-20T10:20:11.776Z,33.45
2022-12-20T10:23:06.114Z,31.09
2022-12-20T10:25:35.501Z,33.13
2022-12-20T10:28:16.957Z,34.03
2022-12-20T10:30:45.114Z,33.41
2022-12-20T10:33:20.551Z,34.08
2022-12-20T10:35:50.920Z,33.55
2022-12-20T10:38:20.936Z,31.93
2022-12-20T10:41:21.444Z,33.96
2022-12-20T10:44:17.199Z,35.15
2022-12-20T10:46:50.363Z,35.65
2022-12-20T10:49:28.721Z,36.30
2022-12-20T10:52:09.437Z,36.36
2022-12-20T10:54:40.203Z,36.55
2022-12-20T10:57:42.017Z,36.63
2022-12-20T11:00:29.725Z,37.03
2022-12-20T11:03:21.354Z,38.78
2022-12-20T11:05:56.980Z,39.33
2022-12-20T11:08:40.500Z,40.43
2022-12-20T11:11:19.556Z,41.26
2022-12-20T11:13:49.409Z,41.81
2022-12-20T11:16:36.795Z,42.13
2022-12-20T11:19:31.602Z,43.03
2022-12-20T11:22:05.960Z,43.63
2022-12-20T11:24:54.203Z,44.68
2022-12-20T11:27:25.701Z,45.24
2022-12-20T11:30:03.116Z,46.24
2022-12-20T11:32:55.712Z,46.42
2022-12-20T11:35:33.059Z,47.73
2022-12-20T11:38:10.301Z,48.27
2022-12-20T11:44:23.169Z,49.09
2022-12-20T11:46:48.532Z,48.89
2022-12-20T11:49:48.565Z,48.48
2022-12-20T11:52:39.238Z,48.86
2022-12-20T11:55:13.168Z,49.46
2022-12-20T11:58:09.504Z,49.77
2022-12-20T12:00:36.875Z,50.40
2022-12-20T12:03:35.012Z,50.92
2022-12-20T12:06:10.973Z,51.73
2022-12-20T12:08:42.528Z,53.42
2022-12-20T12:14:28.126Z,54.15
2022-12-20T12:17:00.996Z,54.91
2022-12-20T12:19:31.047Z,55.21
2022-12-20T12:22:09.639Z,55.80
2022-12-20T12:24:44.417Z,56.00
2022-12-20T12:27:24.162Z,56.46
2022-12-20T12:29:54.663Z,56.90
2022-12-20T12:33:01.020Z,56.73
2022-12-20T12:36:06.895Z,56.45
2022-12-20T12:39:14.169Z,56.76
2022-12-20T12:42:18.092Z,57.08
2022-12-20T12:44:55.066Z,57.68
2022-12-20T12:47:38.063Z,57.45
2022-12-20T12:50:17.847Z,57.14
2022-12-20T12:52:52.239Z,56.51
2022-12-20T12:55:41.929Z,55.78
2022-12-20T12:58:25.089Z,55.05
2022-12-20T13:01:01.087Z,54.68
2022-12-20T13:03:52.569Z,53.57
2022-12-20T13:06:23.917Z,52.73
2022-12-20T13:09:04.446Z,52.74
2022-12-20T13:11:46.507Z,52.69
2022-12-20T13:14:18.040Z,51.99
2022-12-20T13:17:10.825Z,51.66
2022-12-20T13:19:38.822Z,52.38
2022-12-20T13:22:06.898Z,53.08
2022-12-20T13:24:38.207Z,53.62
2022-12-20T13:27:21.341Z,54.21
2022-12-20T13:30:12.373Z,54.63
2022-12-20T13:33:03.450Z,55.26
2022-12-20T13:35:41.290Z,55.33
2022-12-20T13:38:13.068Z,55.50
2022-12-20T13:40:41.133Z,55.79
2022-12-20T13:43:22.717Z,55.98
2022-12-20T13:46:00.961Z,56.06
2022-12-20T13:48:42.507Z,55.83
2022-12-20T13:51:10.711Z,56.26
2022-12-20T13:53:41.322Z,57.14
2022-12-20T13:56:27.957Z,57.34
2022-12-20T13:59:05.387Z,57.70
2022-12-20T14:01:35.012Z,59.04
2022-12-20T14:04:07.361Z,59.42
2022-12-20T14:06:35.624Z,59.53
2022-12-20T14:09:05.992Z,62.14
2022-12-20T14:11:34.157Z,62.76
2022-12-20T14:14:04.461Z,62.17
2022-12-20T14:16:33.700Z,62.15
2022-12-20T14:19:13.539Z,62.79
2022-12-20T14:21:45.186Z,64.95
2022-12-20T14:24:23.867Z,65.22
2022-12-20T14:26:53.939Z,64.32
2022-12-20T14:29:30.684Z,64.10
2022-12-20T14:31:58.649Z,64.80
2022-12-20T14:34:33.090Z,63.92
2022-12-20T14:37:35.501Z,63.10
2022-12-20T14:40:24.329Z,63.93
2022-12-20T14:42:52.710Z,64.09
2022-12-20T14:45:25.829Z,64.04
2022-12-20T14:48:20.204Z,64.01
2022-12-20T14:50:53.679Z,63.86
2022-12-20T14:53:27.689Z,63.93
2022-12-20T14:55:56.320Z,64.37
2022-12-20T14:58:30.984Z,64.72
2022-12-20T15:01:02.418Z,64.87
2022-12-20T15:03:30.732Z,64.79
2022-12-20T15:06:00.574Z,64.71
2022-12-20T15:08:34.058Z,64.72
2022-12-20T15:11:11.212Z,64.61
2022-12-20T15:13:44.249Z,65.13
2022-12-20T15:16:24.192Z,66.09
2022-12-20T15:18:54.942Z,65.62
2022-12-20T15:21:44.367Z,65.76
2022-12-20T15:24:19.785Z,66.27
2022-12-20T15:26:49.543Z,66.15
2022-12-20T15:29:22.123Z,65.80
2022-12-20T15:31:52.606Z,66.18
2022-12-20T15:34:23.819Z,66.48
2022-12-20T15:36:52.063Z,66.39
2022-12-20T15:39:21.788Z,66.54
2022-12-20T15:41:50.607Z,66.59
2022-12-20T15:44:23.506Z,66.62
2022-12-20T15:46:52.929Z,66.14
2022-12-20T15:49:25.092Z,66.56
2022-12-20T15:51:54.315Z,66.66
2022-12-20T15:54:27.657Z,66.77
2022-12-20T15:56:58.235Z,67.47
2022-12-20T15:59:59.064Z,66.58
2022-12-20T16:02:26.201Z,69.28
2022-12-20T16:04:56.490Z,70.74
2022-12-20T16:07:25.119Z,69.73
2022-12-20T16:09:53.206Z,68.67
2022-12-20T16:12:28.230Z,68.42
2022-12-20T16:14:57.147Z,68.60
2022-12-20T16:17:25.510Z,68.79
2022-12-20T16:19:53.849Z,68.70
2022-12-20T16:22:23.315Z,68.37
2022-12-20T16:24:52.167Z,67.86
2022-12-20T16:27:20.834Z,68.36
2022-12-20T16:29:48.928Z,68.65
2022-12-20T16:32:19.904Z,68.77
2022-12-20T16:34:51.936Z,68.74
2022-12-20T16:37:20.016Z,68.55
2022-12-20T16:39:49.075Z,68.66
2022-12-20T16:42:22.887Z,68.99
2022-12-20T16:44:53.043Z,68.66
2022-12-20T16:47:22.495Z,68.83
2022-12-20T16:49:53.222Z,68.89
2022-12-20T16:52:23.042Z,69.35
2022-12-20T16:54:51.578Z,69.34
2022-12-20T16:57:21.413Z,69.26
2022-12-20T16:59:50.268Z,68.82
2022-12-20T17:02:33.085Z,68.02
2022-12-20T17:05:02.256Z,68.49
2022-12-20T17:07:30.581Z,69.12
2022-12-20T17:09:59.456Z,69.28
2022-12-20T17:12:27.412Z,69.18
2022-12-20T17:14:55.468Z,69.11
2022-12-20T17:17:23.468Z,69.52
2022-12-20T17:19:51.485Z,69.48
2022-12-20T17:22:25.664Z,68.93
2022-12-20T17:24:53.734Z,69.45
2022-12-20T17:27:22.010Z,68.23
2022-12-20T17:29:51.023Z,68.02
2022-12-20T17:32:25.999Z,69.04
2022-12-20T17:34:54.724Z,69.83
2022-12-20T17:37:24.875Z,69.98
2022-12-20T17:39:53.021Z,70.04
2022-12-20T17:42:24.384Z,70.76
2022-12-20T17:44:57.106Z,70.16
2022-12-20T17:47:25.266Z,69.91
2022-12-20T17:49:53.607Z,70.10
2022-12-20T17:52:21.771Z,70.12
2022-12-20T17:54:50.151Z,70.34
2022-12-20T17:57:18.132Z,70.51
2022-12-20T17:59:46.965Z,70.49
2022-12-20T18:02:23.821Z,70.64
2022-12-20T18:04:53.393Z,70.68
2022-12-20T18:07:21.684Z,70.61
2022-12-20T18:09:51.189Z,70.68
2022-12-20T18:12:19.202Z,71.12
2022-12-20T18:14:49.550Z,70.94
2022-12-20T18:17:17.747Z,70.92
2022-12-20T18:19:46.002Z,71.11
2022-12-20T18:22:15.262Z,71.12
2022-12-20T18:24:43.256Z,70.92
2022-12-20T18:27:11.356Z,71.07
2022-12-20T18:29:39.946Z,70.49
2022-12-20T18:32:08.192Z,69.57
2022-12-20T18:34:36.279Z,70.44
2022-12-20T18:37:05.845Z,71.00
2022-12-20T18:39:34.265Z,71.27
2022-12-20T18:42:02.407Z,71.15
2022-12-20T18:44:35.451Z,71.29
2022-12-20T18:47:04.021Z,71.26
2022-12-20T18:49:32.303Z,71.27
2022-12-20T18:52:01.506Z,71.18
2022-12-20T18:54:30.475Z,71.29
2022-12-20T18:56:58.695Z,71.25
2022-12-20T18:59:26.785Z,71.14
2022-12-20T19:01:55.165Z,71.34
2022-12-20T19:04:25.104Z,71.50
2022-12-20T19:06:53.844Z,71.41
2022-12-20T19:09:22.632Z,70.95
2022-12-20T19:11:56.596Z,71.03
2022-12-20T19:14:26.127Z,71.57
2022-12-20T19:16:54.960Z,71.78
2022-12-20T19:19:23.106Z,71.88
2022-12-20T19:21:51.263Z,71.73
2022-12-20T19:24:19.639Z,71.47
2022-12-20T19:26:47.829Z,71.78
2022-12-20T19:29:15.985Z,72.05
2022-12-20T19:31:44.024Z,72.10
2022-12-20T19:34:13.202Z,72.30
2022-12-20T19:36:44.190Z,72.18
2022-12-20T19:39:20.518Z,72.65
2022-12-20T19:42:21.911Z,73.06
2022-12-20T19:44:38.295Z,72.25
2022-12-20T19:47:07.119Z,71.92
2022-12-20T19:49:36.172Z,72.13
2022-12-20T19:52:06.020Z,72.35
2022-12-20T19:54:35.438Z,72.28
2022-12-20T19:57:03.985Z,72.48
2022-12-20T19:59:32.015Z,72.72
2022-12-20T20:02:00.522Z,72.77
2022-12-20T20:04:28.786Z,72.79
2022-12-20T20:06:56.879Z,73.10
2022-12-20T20:09:25.247Z,73.10
2022-12-20T20:11:53.214Z,72.91
2022-12-20T20:14:21.704Z,72.85
2022-12-20T20:16:50.435Z,73.16
2022-12-20T20:19:19.067Z,73.32
2022-12-20T20:21:48.888Z,73.61
2022-12-20T20:24:17.269Z,73.52
2022-12-20T20:26:45.327Z,73.38
2022-12-20T20:29:13.525Z,73.48
2022-12-20T20:31:41.623Z,73.75
2022-12-20T20:34:09.986Z,73.64
2022-12-20T20:36:38.241Z,73.64
2022-12-20T20:39:06.930Z,73.72
2022-12-20T20:41:35.199Z,73.27
2022-12-20T20:44:03.716Z,73.57
2022-12-20T20:46:32.065Z,73.39
2022-12-20T20:49:00.250Z,73.37
2022-12-20T20:51:29.194Z,73.28
2022-12-20T20:53:57.592Z,73.42
2022-12-20T20:56:26.918Z,73.53
2022-12-20T20:59:02.645Z,73.20
2022-12-20T21:01:34.853Z,73.38
2022-12-20T21:04:06.326Z,73.13
2022-12-20T21:06:41.134Z,73.09
2022-12-20T21:09:10.103Z,73.01
2022-12-20T21:11:39.052Z,72.82
2022-12-20T21:14:07.289Z,72.88
2022-12-20T21:16:36.870Z,73.07
2022-12-20T21:19:05.807Z,74.47
2022-12-20T21:21:33.981Z,74.02
2022-12-20T21:24:02.099Z,73.75
2022-12-20T21:26:30.084Z,73.97
2022-12-20T21:28:59.581Z,73.76
2022-12-20T21:31:28.597Z,73.47
2022-12-20T21:33:57.434Z,73.17
2022-12-20T21:36:25.966Z,73.12
2022-12-20T21:38:57.481Z,73.24
2022-12-20T21:41:28.044Z,73.30
2022-12-20T21:44:00.429Z,73.59
2022-12-20T21:46:31.975Z,73.57
2022-12-20T21:49:00.952Z,73.45
2022-12-20T21:51:30.468Z,73.65
2022-12-20T21:54:00.396Z,73.52
2022-12-20T21:56:31.437Z,73.31
2022-12-20T21:58:59.901Z,72.98
2022-12-20T22:01:30.387Z,72.40
2022-12-20T22:04:01.572Z,72.88
2022-12-20T22:06:31.601Z,72.92
2022-12-20T22:09:01.747Z,72.65
2022-12-20T22:11:29.900Z,72.95
2022-12-20T22:13:58.683Z,73.21
2022-12-20T22:16:32.475Z,73.61
2022-12-20T22:19:01.839Z,73.34
2022-12-20T22:21:32.158Z,73.00
2022-12-20T22:24:01.315Z,72.97
2022-12-20T22:26:32.167Z,73.26
2022-12-20T22:29:06.054Z,73.62
2022-12-20T22:31:35.655Z,73.58
2022-12-20T22:34:05.134Z,74.22
2022-12-20T22:36:33.298Z,73.80
2022-12-20T22:39:01.536Z,74.02
2022-12-20T22:41:34.040Z,74.20
2022-12-20T22:44:03.130Z,74.00
2022-12-20T22:46:31.754Z,73.90
2022-12-20T22:49:01.656Z,73.82
2022-12-20T22:51:33.513Z,73.56
2022-12-20T22:54:01.837Z,73.83
2022-12-20T22:56:30.170Z,73.90
2022-12-20T22:58:58.416Z,74.09
2022-12-20T23:01:26.817Z,74.06
2022-12-20T23:03:55.214Z,74.10
2022-12-20T23:06:23.819Z,74.11
2022-12-20T23:08:52.007Z,74.21
2022-12-20T23:11:41.656Z,73.99
2022-12-20T23:14:34.435Z,73.57
2022-12-20T23:17:03.262Z,74.03
2022-12-20T23:19:52.214Z,73.91
2022-12-20T23:22:39.567Z,74.24
2022-12-20T23:25:14.242Z,74.33
2022-12-20T23:27:43.976Z,74.46
2022-12-20T23:30:15.611Z,74.97
2022-12-20T23:32:46.436Z,74.35
2022-12-20T23:35:16.891Z,74.02
2022-12-20T23:37:46.034Z,73.87
2022-12-20T23:40:16.488Z,74.02
2022-12-20T23:42:45.262Z,74.13
2022-12-20T23:45:13.711Z,74.26
2022-12-20T23:47:41.929Z,74.48
2022-12-20T23:50:10.308Z,74.21
2022-12-20T23:52:38.405Z,74.24
2022-12-20T23:55:06.911Z,74.58
2022-12-20T23:57:35.145Z,74.68
